Time;durP1;ratioP1;P1;durP2;ratioP2;P2;SDS_P1;SDS_P2;PMS_P1;PMS_P2;Temp;Humidity;BMP_temperature;BMP_pressure;BME280_temperature;BME280_humidity;BME280_pressure;Samples;Min_cycle;Max_cycle;Signal;HPM_P1;HPM_P2
2021/07/19 00:00:09;;;;;;;9.10;4.40;;;;;;;16.82;79.07;101462.09;694785;28;4324;-53
2021/07/19 00:00:30;;;;;;;6.50;3.90;;;;;;;16.77;80.02;101469.22;696120;28;1323;-53
2021/07/19 00:00:50;;;;;;;6.80;4.15;;;;;;;16.70;80.25;101472.88;696289;28;1562;-52
2021/07/19 00:01:11;;;;;;;7.17;4.40;;;;;;;16.65;80.27;101467.66;695763;28;1489;-51
2021/07/19 00:01:31;;;;;;;5.93;4.30;;;;;;;16.66;80.11;101461.47;696183;28;1300;-54
2021/07/19 00:01:54;;;;;;;6.60;4.33;;;;;;;16.66;80.34;101465.91;694769;28;4503;-52
2021/07/19 00:02:14;;;;;;;6.75;4.20;;;;;;;16.61;79.97;101467.75;695350;28;4450;-51
2021/07/19 00:02:34;;;;;;;6.10;3.83;;;;;;;16.63;80.39;101466.81;698078;28;4562;-53
2021/07/19 00:02:56;;;;;;;6.93;4.00;;;;;;;16.65;80.99;101467.66;697311;28;4392;-55
2021/07/19 00:03:16;;;;;;;6.75;4.53;;;;;;;16.65;80.58;101464.16;697425;28;1823;-52
2021/07/19 00:03:37;;;;;;;6.63;4.50;;;;;;;16.66;80.68;101466.75;698459;28;1531;-55
2021/07/19 00:03:58;;;;;;;5.67;4.10;;;;;;;16.60;81.06;101466.00;699099;28;1423;-52
2021/07/19 00:04:19;;;;;;;6.82;4.00;;;;;;;16.61;80.29;101467.75;698716;28;1302;-52
2021/07/19 00:04:43;;;;;;;6.10;4.00;;;;;;;16.64;80.34;101468.56;696055;28;1458;-52
2021/07/19 00:05:06;;;;;;;6.00;4.03;;;;;;;16.64;80.03;101468.56;694059;28;4569;-54
2021/07/19 00:05:27;;;;;;;6.53;4.20;;;;;;;16.66;79.80;101466.75;697509;28;4137;-51
2021/07/19 00:05:47;;;;;;;6.70;4.30;;;;;;;16.66;79.72;101469.41;696646;28;4489;-51
2021/07/19 00:06:08;;;;;;;6.25;4.18;;;;;;;16.69;79.97;101466.69;697704;28;4433;-52
2021/07/19 00:06:28;;;;;;;6.03;4.30;;;;;;;16.68;79.94;101470.25;697773;28;1947;-54
2021/07/19 00:06:49;;;;;;;6.78;4.40;;;;;;;16.66;80.02;101466.75;698354;28;1682;-52
2021/07/19 00:07:11;;;;;;;8.02;4.30;;;;;;;16.68;80.25;101470.25;698701;28;1531;-53
2021/07/19 00:07:31;;;;;;;6.22;3.95;;;;;;;16.71;80.53;101468.44;695544;28;1481;-51
2021/07/19 00:07:52;;;;;;;6.03;4.30;;;;;;;16.66;80.43;101468.53;694716;28;4485;-53
2021/07/19 00:08:12;;;;;;;7.10;4.37;;;;;;;16.62;80.16;101464.22;695425;28;4342;-52
2021/07/19 00:08:32;;;;;;;7.28;4.40;;;;;;;16.64;80.22;101465.94;695477;28;3949;-51
2021/07/19 00:08:53;;;;;;;7.73;4.27;;;;;;;16.64;80.22;101468.56;694638;28;4777;-51
2021/07/19 00:09:14;;;;;;;6.07;4.10;;;;;;;16.68;79.76;101462.34;697005;28;1722;-52
2021/07/19 00:09:35;;;;;;;6.63;4.10;;;;;;;16.71;80.53;101468.44;694469;28;2069;-51
2021/07/19 00:09:56;;;;;;;6.35;4.10;;;;;;;16.65;80.57;101462.38;696159;28;2350;-51
2021/07/19 00:10:18;;;;;;;6.47;4.30;;;;;;;16.62;80.26;101465.06;695010;28;1286;-54
2021/07/19 00:10:39;;;;;;;7.53;4.40;;;;;;;16.55;80.44;101463.44;696079;28;1677;-53
2021/07/19 00:10:59;;;;;;;6.40;3.90;;;;;;;16.52;80.63;101471.41;695573;28;4540;-52
2021/07/19 00:11:20;;;;;;;6.80;3.97;;;;;;;16.50;80.84;101470.56;695518;28;3137;-53
2021/07/19 00:11:41;;;;;;;6.40;4.22;;;;;;;16.48;80.98;101467.94;695154;28;4018;-52
2021/07/19 00:12:04;;;;;;;7.15;4.15;;;;;;;16.50;80.69;101466.16;694308;28;4605;-53
2021/07/19 00:12:25;;;;;;;7.13;4.20;;;;;;;16.54;80.45;101461.69;694868;28;2947;-54
2021/07/19 00:12:47;;;;;;;5.60;4.23;;;;;;;16.59;79.97;101459.84;694334;28;1920;-56
2021/07/19 00:13:08;;;;;;;5.55;4.10;;;;;;;16.60;80.32;101461.59;695929;28;1655;-54
2021/07/19 00:13:28;;;;;;;5.78;4.10;;;;;;;16.56;80.19;101462.56;696227;28;1424;-52
2021/07/19 00:13:49;;;;;;;6.88;4.20;;;;;;;16.55;80.11;101458.16;695232;28;1594;-51
2021/07/19 00:14:10;;;;;;;6.97;4.05;;;;;;;16.55;80.93;101465.22;695402;28;4401;-51
2021/07/19 00:14:32;;;;;;;5.57;3.90;;;;;;;16.52;80.15;101469.63;695439;28;4225;-51
2021/07/19 00:14:53;;;;;;;6.50;3.95;;;;;;;16.52;80.78;101467.00;694795;28;4538;-53
2021/07/19 00:15:20;;;;;;;6.23;4.23;;;;;;;16.50;81.10;101460.00;696274;28;4300;-56
2021/07/19 00:15:41;;;;;;;5.95;4.50;;;;;;;16.52;80.58;101455.56;695273;28;1744;-53
2021/07/19 00:16:02;;;;;;;7.07;4.25;;;;;;;16.56;80.15;101459.03;694844;28;1668;-51
2021/07/19 00:16:24;;;;;;;6.20;4.07;;;;;;;16.50;80.67;101465.28;696932;28;1525;-52
2021/07/19 00:16:45;;;;;;;6.72;4.03;;;;;;;16.47;81.20;101465.34;696318;28;1523;-52
2021/07/19 00:17:05;;;;;;;5.93;3.83;;;;;;;16.45;81.27;101462.72;695304;28;4554;-53
2021/07/19 00:17:26;;;;;;;5.97;3.90;;;;;;;16.46;81.47;101464.47;695433;28;4701;-52
2021/07/19 00:17:47;;;;;;;6.20;4.20;;;;;;;16.45;81.33;101461.88;695192;28;1805;-52
2021/07/19 00:18:07;;;;;;;7.90;4.50;;;;;;;16.44;81.36;101463.59;694447;28;4312;-52
2021/07/19 00:18:28;;;;;;;8.00;4.50;;;;;;;16.41;81.58;101460.16;696057;28;1214;-52
2021/07/19 00:18:49;;;;;;;6.83;4.50;;;;;;;16.31;82.29;101468.22;697231;28;4211;-52
2021/07/19 00:19:09;;;;;;;7.82;4.30;;;;;;;16.29;81.86;101458.59;697351;28;1571;-51
2021/07/19 00:19:29;;;;;;;6.13;3.90;;;;;;;16.34;81.75;101464.66;698212;28;1616;-53
2021/07/19 00:19:51;;;;;;;6.22;4.18;;;;;;;16.36;81.75;101467.28;694845;28;2005;-52
2021/07/19 00:20:13;;;;;;;5.03;4.20;;;;;;;16.41;81.48;101466.31;695213;28;5908;-52
2021/07/19 00:20:33;;;;;;;6.15;4.47;;;;;;;16.44;81.39;101465.38;695236;28;4204;-52
2021/07/19 00:20:53;;;;;;;6.47;4.70;;;;;;;16.50;80.90;101460.00;695131;28;4356;-53
2021/07/19 00:21:14;;;;;;;6.78;4.50;;;;;;;16.50;81.00;101457.34;695297;28;1756;-51
2021/07/19 00:21:34;;;;;;;6.60;4.37;;;;;;;16.48;80.75;101453.88;696145;28;3883;-52
2021/07/19 00:21:55;;;;;;;5.75;4.20;;;;;;;16.49;81.47;101466.16;694396;28;4439;-50
2021/07/19 00:22:20;;;;;;;6.70;4.40;;;;;;;16.44;81.11;101465.38;695626;28;1957;-50
2021/07/19 00:22:41;;;;;;;7.20;4.25;;;;;;;16.44;81.24;101465.38;695354;28;1727;-51
2021/07/19 00:23:01;;;;;;;6.90;4.20;;;;;;;16.41;81.01;101462.81;695753;28;4448;-51
2021/07/19 00:23:21;;;;;;;6.90;4.38;;;;;;;16.36;81.65;101464.63;696214;28;1780;-51
2021/07/19 00:23:42;;;;;;;6.03;4.40;;;;;;;16.33;81.46;101466.41;695941;28;4295;-53
2021/07/19 00:24:05;;;;;;;6.40;4.30;;;;;;;16.31;81.42;101467.34;693946;28;4661;-55
2021/07/19 00:24:26;;;;;;;7.68;4.35;;;;;;;16.32;81.24;101461.16;696132;28;1478;-53
2021/07/19 00:24:47;;;;;;;7.65;4.47;;;;;;;16.37;81.31;101463.75;697128;28;3902;-51
2021/07/19 00:25:09;;;;;;;7.00;4.45;;;;;;;16.37;81.74;101463.75;695976;28;3971;-54
2021/07/19 00:25:30;;;;;;;7.57;4.60;;;;;;;16.30;82.54;101466.47;695980;28;1517;-51
2021/07/19 00:25:51;;;;;;;7.78;4.13;;;;;;;16.34;81.69;101464.66;695574;28;1400;-57
2021/07/19 00:26:12;;;;;;;8.80;4.30;;;;;;;16.39;81.96;101472.50;695811;28;4570;-55
2021/07/19 00:26:32;;;;;;;6.47;4.20;;;;;;;16.30;82.38;101465.63;696429;28;2347;-51
2021/07/19 00:26:52;;;;;;;6.93;4.33;;;;;;;16.30;82.11;101462.97;695202;28;4565;-52
2021/07/19 00:27:13;;;;;;;6.77;4.40;;;;;;;16.34;81.99;101465.53;694252;28;1649;-51
2021/07/19 00:27:34;;;;;;;7.78;4.55;;;;;;;16.31;82.26;101465.59;695362;28;1297;-54
2021/07/19 00:27:57;;;;;;;7.90;4.57;;;;;;;16.30;82.12;101468.25;695447;28;3899;-53
2021/07/19 00:28:18;;;;;;;7.32;4.30;;;;;;;16.33;81.73;101470.84;696608;28;4299;-52
2021/07/19 00:28:38;;;;;;;7.83;4.50;;;;;;;16.33;81.74;101463.78;696112;28;1444;-53
2021/07/19 00:28:58;;;;;;;6.38;4.20;;;;;;;16.34;81.63;101464.66;694790;28;4624;-51
2021/07/19 00:29:19;;;;;;;6.80;4.50;;;;;;;16.34;81.68;101472.59;696465;28;1458;-52
2021/07/19 00:29:40;;;;;;;7.10;4.90;;;;;;;16.29;82.18;101471.78;695770;28;3206;-53
2021/07/19 00:30:00;;;;;;;6.30;4.70;;;;;;;16.28;81.92;101464.75;695738;28;4489;-55
2021/07/19 00:30:22;;;;;;;7.38;4.65;;;;;;;16.23;82.35;101472.75;692077;28;1505;-51
2021/07/19 00:30:43;;;;;;;6.72;4.97;;;;;;;16.23;82.15;101469.25;693448;28;1555;-52
2021/07/19 00:31:05;;;;;;;7.18;4.65;;;;;;;16.26;81.79;101464.78;690827;28;3366;-52
2021/07/19 00:31:31;;;;;;;8.07;4.72;;;;;;;16.30;81.77;101466.47;691425;28;1602;-53
2021/07/19 00:31:51;;;;;;;6.55;4.50;;;;;;;16.35;81.44;101466.38;692186;28;4428;-55
2021/07/19 00:32:11;;;;;;;6.90;4.60;;;;;;;16.30;81.95;101471.75;693575;28;1602;-51
2021/07/19 00:32:32;;;;;;;7.10;4.60;;;;;;;16.28;81.95;101462.09;697157;28;1126;-52
2021/07/19 00:32:53;;;;;;;6.60;4.50;;;;;;;16.29;82.07;101470.00;694856;28;4328;-52
2021/07/19 00:33:15;;;;;;;9.10;4.50;;;;;;;16.29;81.95;101466.50;695148;28;3917;-52
2021/07/19 00:33:36;;;;;;;6.90;4.20;;;;;;;16.28;82.08;101473.56;696680;28;1449;-54
2021/07/19 00:33:56;;;;;;;5.72;4.25;;;;;;;16.29;81.97;101467.34;695208;28;1427;-55
2021/07/19 00:34:17;;;;;;;6.40;4.50;;;;;;;16.26;82.29;101463.91;696054;28;1288;-54
2021/07/19 00:34:37;;;;;;;6.10;4.20;;;;;;;16.27;82.33;101463.88;695848;28;1570;-52
2021/07/19 00:34:58;;;;;;;6.67;4.63;;;;;;;16.31;81.50;101464.69;695216;28;4380;-54
2021/07/19 00:35:18;;;;;;;6.50;4.45;;;;;;;16.33;82.15;101462.91;694174;28;1884;-55
2021/07/19 00:35:39;;;;;;;7.50;4.37;;;;;;;16.32;82.37;101459.41;693280;28;1681;-51
2021/07/19 00:35:59;;;;;;;7.00;4.10;;;;;;;16.30;81.94;101461.19;691665;28;4838;-51
2021/07/19 00:36:20;;;;;;;6.85;4.28;;;;;;;16.27;81.94;101466.53;692664;28;4879;-55
2021/07/19 00:36:41;;;;;;;7.00;4.55;;;;;;;16.25;81.77;101465.66;693297;28;1703;-51
2021/07/19 00:37:03;;;;;;;6.07;4.30;;;;;;;16.17;82.49;101470.19;693994;28;1647;-51
2021/07/19 00:37:23;;;;;;;7.03;4.50;;;;;;;16.13;82.19;101479.03;695755;28;1318;-53
2021/07/19 00:37:44;;;;;;;7.78;4.78;;;;;;;16.15;81.85;101467.56;698611;28;3923;-53
2021/07/19 00:38:05;;;;;;;5.95;4.57;;;;;;;16.16;82.12;101464.06;697086;28;4518;-51
2021/07/19 00:38:26;;;;;;;5.85;4.43;;;;;;;16.18;82.39;101464.03;698005;28;1734;-51
2021/07/19 00:38:46;;;;;;;5.88;4.50;;;;;;;16.17;82.65;101470.19;696891;28;1636;-53
2021/07/19 00:39:08;;;;;;;6.33;4.70;;;;;;;16.15;82.94;101464.94;695984;28;4478;-51
2021/07/19 00:39:29;;;;;;;6.63;4.57;;;;;;;16.07;82.38;101460.69;692882;28;4562;-51
2021/07/19 00:39:50;;;;;;;8.07;4.90;;;;;;;16.05;82.64;101465.97;692933;28;2200;-54
2021/07/19 00:40:17;;;;;;;8.10;4.72;;;;;;;16.06;82.66;101469.47;693618;28;1559;-53
2021/07/19 00:40:38;;;;;;;7.70;4.80;;;;;;;16.05;82.76;101465.09;692594;28;1517;-53
2021/07/19 00:40:58;;;;;;;8.10;4.82;;;;;;;16.06;83.05;101469.47;693438;28;4459;-52
2021/07/19 00:41:20;;;;;;;6.93;4.53;;;;;;;16.08;82.90;101470.34;695978;28;3819;-53
2021/07/19 00:41:41;;;;;;;7.20;4.78;;;;;;;16.07;82.89;101472.09;695535;28;1720;-52
2021/07/19 00:42:01;;;;;;;6.80;4.90;;;;;;;16.07;82.67;101476.50;694238;28;4605;-52
2021/07/19 00:42:22;;;;;;;7.10;5.00;;;;;;;16.04;82.80;101473.91;692943;28;1422;-55
2021/07/19 00:42:46;;;;;;;7.03;5.07;;;;;;;16.03;82.67;101469.53;693422;28;4535;-54
2021/07/19 00:43:07;;;;;;;7.93;4.72;;;;;;;16.04;82.87;101466.00;692718;28;3572;-51
2021/07/19 00:43:28;;;;;;;7.03;4.53;;;;;;;16.04;82.52;101466.00;690643;28;2062;-52
2021/07/19 00:43:49;;;;;;;7.25;4.78;;;;;;;15.98;83.18;101467.84;692407;28;1508;-54
2021/07/19 00:44:11;;;;;;;7.38;4.65;;;;;;;15.97;82.92;101475.78;692774;28;4522;-54
2021/07/19 00:44:32;;;;;;;6.28;4.55;;;;;;;16.06;82.20;101465.09;695683;28;4408;-55
2021/07/19 00:44:52;;;;;;;6.07;4.50;;;;;;;16.17;81.98;101467.53;693631;28;4342;-54
2021/07/19 00:45:17;;;;;;;6.73;4.47;;;;;;;16.11;82.41;101468.50;693152;28;4531;-56
2021/07/19 00:45:37;;;;;;;6.38;4.45;;;;;;;16.07;82.27;101463.31;697003;28;2951;-54
2021/07/19 00:45:58;;;;;;;7.03;4.30;;;;;;;16.11;81.72;101465.00;698434;28;1870;-55
2021/07/19 00:46:18;;;;;;;6.87;4.33;;;;;;;16.08;81.75;101460.66;695888;28;1790;-56
2021/07/19 00:46:39;;;;;;;8.25;4.70;;;;;;;16.04;82.26;101468.66;693480;28;1441;-55
2021/07/19 00:47:00;;;;;;;6.97;4.50;;;;;;;16.00;82.53;101467.81;690062;28;4432;-52
2021/07/19 00:47:20;;;;;;;7.07;4.63;;;;;;;15.98;82.58;101466.97;686987;28;3755;-54
2021/07/19 00:47:43;;;;;;;6.30;4.63;;;;;;;16.00;82.48;101463.44;687717;28;4287;-54
2021/07/19 00:48:05;;;;;;;8.80;4.40;;;;;;;15.96;82.64;101466.09;687436;28;4529;-55
2021/07/19 00:48:26;;;;;;;8.10;4.47;;;;;;;15.94;82.25;101458.22;691443;28;4368;-54
2021/07/19 00:48:47;;;;;;;6.47;4.50;;;;;;;15.95;82.65;101462.63;689400;28;4508;-55
2021/07/19 00:49:10;;;;;;;5.97;4.50;;;;;;;15.96;82.77;101464.38;693142;28;1712;-55
2021/07/19 00:49:33;;;;;;;6.72;4.30;;;;;;;15.98;82.75;101457.28;696177;28;1530;-55
2021/07/19 00:49:54;;;;;;;6.80;4.45;;;;;;;16.01;82.64;101461.66;693086;28;4481;-55
2021/07/19 00:50:15;;;;;;;7.47;4.82;;;;;;;15.99;83.07;101464.31;691949;28;1939;-55
2021/07/19 00:50:39;;;;;;;6.65;4.45;;;;;;;15.92;82.91;101462.66;689442;28;4125;-55
2021/07/19 00:51:00;;;;;;;7.63;4.53;;;;;;;15.97;82.40;101462.59;685361;28;4328;-54
2021/07/19 00:51:20;;;;;;;8.43;4.70;;;;;;;15.99;81.98;101459.03;684637;28;3768;-52
2021/07/19 00:51:43;;;;;;;7.00;4.63;;;;;;;15.94;82.46;101462.63;688103;28;4265;-56
2021/07/19 00:52:06;;;;;;;6.78;4.40;;;;;;;15.88;82.84;101460.97;690792;28;1618;-55
2021/07/19 00:52:26;;;;;;;7.77;4.97;;;;;;;15.89;82.46;101467.97;691517;28;1864;-58
2021/07/19 00:52:48;;;;;;;6.88;4.55;;;;;;;15.90;83.06;101464.44;690260;28;1756;-55
2021/07/19 00:53:09;;;;;;;7.07;4.63;;;;;;;15.87;83.34;101456.56;687513;28;4415;-54
2021/07/19 00:53:30;;;;;;;6.65;4.55;;;;;;;15.83;84.03;101458.38;689335;28;1580;-54
2021/07/19 00:53:52;;;;;;;6.93;4.40;;;;;;;15.76;83.68;101456.69;688748;28;4443;-53
2021/07/19 00:54:17;;;;;;;7.22;4.50;;;;;;;15.70;83.52;101458.53;690465;28;1683;-54
2021/07/19 00:54:38;;;;;;;6.43;4.40;;;;;;;15.65;83.42;101459.47;688908;28;4262;-53
2021/07/19 00:55:01;;;;;;;7.00;4.70;;;;;;;15.65;83.65;101454.19;689209;28;4310;-54
2021/07/19 00:55:25;;;;;;;7.13;4.80;;;;;;;15.68;83.89;101457.69;689738;28;2252;-55
2021/07/19 00:55:48;;;;;;;7.88;4.75;;;;;;;15.63;84.44;101458.63;690722;28;2822;-54
2021/07/19 00:56:10;;;;;;;9.10;4.80;;;;;;;15.56;84.11;101454.31;691338;28;4445;-52
2021/07/19 00:56:33;;;;;;;7.70;4.70;;;;;;;15.58;83.77;101460.44;693249;28;1529;-55
2021/07/19 00:56:57;;;;;;;7.25;4.65;;;;;;;15.63;84.62;101460.38;690622;28;4519;-52
2021/07/19 00:57:21;;;;;;;7.60;4.88;;;;;;;15.59;84.80;101449.00;692924;28;1952;-54
2021/07/19 00:57:46;;;;;;;8.68;4.97;;;;;;;15.55;84.47;101457.84;694551;28;4622;-53
2021/07/19 00:58:09;;;;;;;7.15;4.65;;;;;;;15.58;84.20;101455.16;692372;28;4476;-53
2021/07/19 00:58:33;;;;;;;7.07;4.60;;;;;;;15.69;83.41;101462.03;689866;28;2179;-54
2021/07/19 00:58:54;;;;;;;7.65;4.97;;;;;;;15.77;83.09;101458.44;692925;28;4422;-54
2021/07/19 00:59:15;;;;;;;6.35;4.45;;;;;;;15.80;82.91;101460.19;693079;28;1355;-56
2021/07/19 00:59:37;;;;;;;6.75;4.40;;;;;;;15.81;83.03;101464.56;692446;28;1922;-52
2021/07/19 01:00:01;;;;;;;7.35;4.60;;;;;;;15.84;83.06;101454.00;693784;28;4510;-55
2021/07/19 01:00:24;;;;;;;6.57;4.60;;;;;;;15.83;83.65;101453.09;694442;28;3324;-53
2021/07/19 01:00:50;;;;;;;6.53;4.80;;;;;;;15.76;83.29;101463.72;695870;28;4485;-52
2021/07/19 01:01:12;;;;;;;6.93;4.53;;;;;;;15.75;83.01;101452.28;692674;28;4905;-52
2021/07/19 01:01:36;;;;;;;6.30;4.43;;;;;;;15.77;83.15;101452.28;692898;28;1771;-54
2021/07/19 01:02:00;;;;;;;6.85;4.43;;;;;;;15.76;83.29;101456.69;689623;28;4515;-52
2021/07/19 01:02:22;;;;;;;7.10;4.82;;;;;;;15.75;83.12;101460.22;690784;28;1486;-51
2021/07/19 01:02:49;;;;;;;7.40;4.68;;;;;;;15.73;83.50;101455.84;691892;28;1480;-53
2021/07/19 01:03:11;;;;;;;7.75;4.70;;;;;;;15.70;83.56;101456.78;691778;28;4847;-53
2021/07/19 01:03:32;;;;;;;7.38;4.70;;;;;;;15.70;83.39;101458.53;690007;28;4235;-54
2021/07/19 01:03:56;;;;;;;7.57;4.85;;;;;;;15.70;83.53;101461.16;691305;28;4864;-54
2021/07/19 01:04:18;;;;;;;6.78;4.55;;;;;;;15.71;83.52;101449.72;692160;28;4992;-52
2021/07/19 01:04:46;;;;;;;6.25;4.20;;;;;;;15.72;83.77;101454.13;695228;28;1829;-52
2021/07/19 01:05:11;;;;;;;6.97;4.60;;;;;;;15.69;84.24;101459.41;692877;28;4637;-54
2021/07/19 01:05:39;;;;;;;6.88;4.50;;;;;;;15.73;83.37;101462.00;691962;28;2125;-54
2021/07/19 01:06:02;;;;;;;6.43;4.65;;;;;;;15.76;82.99;101455.81;691811;28;4328;-53
2021/07/19 01:06:25;;;;;;;6.68;4.45;;;;;;;15.79;82.94;101453.13;689657;28;1446;-54
2021/07/19 01:06:48;;;;;;;7.38;4.63;;;;;;;15.83;82.89;101453.09;689288;28;2898;-55
2021/07/19 01:07:18;;;;;;;7.07;4.57;;;;;;;15.80;82.69;101452.28;692445;28;4551;-54
2021/07/19 01:07:43;;;;;;;6.63;4.35;;;;;;;15.75;83.49;101454.06;691816;28;1908;-55
2021/07/19 01:08:04;;;;;;;6.28;4.63;;;;;;;15.74;82.92;101457.59;688966;28;4645;-56
2021/07/19 01:08:26;;;;;;;6.25;4.45;;;;;;;15.78;82.93;101460.19;693381;28;1567;-52
2021/07/19 01:08:50;;;;;;;6.82;4.60;;;;;;;15.78;83.12;101454.03;691731;28;2851;-53
2021/07/19 01:09:16;;;;;;;6.82;4.45;;;;;;;15.78;83.05;101452.28;691182;28;5037;-55
2021/07/19 01:09:37;;;;;;;6.90;4.40;;;;;;;15.83;82.46;101457.50;692596;28;1566;-52
2021/07/19 01:10:00;;;;;;;7.47;4.78;;;;;;;15.83;82.96;101452.25;693712;28;3929;-56
2021/07/19 01:10:20;;;;;;;6.95;4.60;;;;;;;15.83;83.14;101453.09;694367;28;3605;-55
2021/07/19 01:10:48;;;;;;;7.72;4.55;;;;;;;15.81;82.68;101454.91;695559;28;4163;-52
2021/07/19 01:11:09;;;;;;;7.45;4.65;;;;;;;15.76;83.34;101450.56;694634;28;5824;-55
2021/07/19 01:11:30;;;;;;;6.95;4.53;;;;;;;15.71;82.83;101455.00;695900;28;1179;-54
2021/07/19 01:11:51;;;;;;;6.25;4.53;;;;;;;15.65;83.37;101453.31;695295;28;1244;-55
2021/07/19 01:12:13;;;;;;;7.25;4.88;;;;;;;15.56;84.00;101449.06;695004;28;4888;-53
2021/07/19 01:12:43;;;;;;;6.38;4.70;;;;;;;15.52;84.01;101446.47;692509;28;1387;-53
2021/07/19 01:13:06;;;;;;;6.55;4.65;;;;;;;15.54;84.27;101449.97;689157;28;3377;-52
2021/07/19 01:13:28;;;;;;;7.68;4.57;;;;;;;15.56;83.88;101448.16;689338;28;4282;-52
2021/07/19 01:13:51;;;;;;;7.97;4.68;;;;;;;15.61;83.73;101447.22;686238;28;4622;-51
2021/07/19 01:14:12;;;;;;;6.47;4.60;;;;;;;15.58;84.17;101454.31;687340;28;4864;-55
2021/07/19 01:14:33;;;;;;;6.72;4.78;;;;;;;15.58;83.74;101449.91;692472;28;1644;-54
2021/07/19 01:14:54;;;;;;;6.65;4.55;;;;;;;15.62;83.14;101450.75;691664;28;5503;-54
2021/07/19 01:15:15;;;;;;;6.33;4.60;;;;;;;15.62;83.59;101454.25;689817;28;1636;-56
2021/07/19 01:15:41;;;;;;;7.63;4.70;;;;;;;15.52;84.54;101447.34;690510;28;1402;-53
2021/07/19 01:16:05;;;;;;;7.07;4.43;;;;;;;15.45;84.10;101453.56;689520;28;3081;-53
2021/07/19 01:16:27;;;;;;;7.03;4.80;;;;;;;15.40;84.30;101452.78;689105;28;4043;-52
2021/07/19 01:16:57;;;;;;;6.85;4.47;;;;;;;15.40;84.70;101450.13;687582;28;4469;-55
2021/07/19 01:17:21;;;;;;;7.38;4.82;;;;;;;15.46;84.32;101444.78;691986;28;4979;-55
2021/07/19 01:17:42;;;;;;;7.55;4.72;;;;;;;15.44;84.39;101455.34;689515;28;1940;-53
2021/07/19 01:18:06;;;;;;;6.55;4.75;;;;;;;15.40;84.59;101451.00;692600;28;4485;-53
2021/07/19 01:18:31;;;;;;;7.72;4.97;;;;;;;15.41;84.52;101442.22;692666;28;1564;-54
2021/07/19 01:18:54;;;;;;;7.50;4.75;;;;;;;15.49;83.70;101452.63;694455;28;1474;-53
2021/07/19 01:19:31;;;;;;;7.28;4.47;;;;;;;15.57;83.15;101449.91;690261;28;2690;-54
2021/07/19 01:19:56;;;;;;;6.47;4.63;;;;;;;15.57;83.72;101450.78;693747;28;4663;-51
2021/07/19 01:20:23;;;;;;;7.57;5.05;;;;;;;15.56;83.70;101449.06;694841;28;4263;-54
2021/07/19 01:20:59;;;;;;;7.43;4.80;;;;;;;15.66;82.53;101448.03;694718;28;1740;-52
2021/07/19 01:22:04;;;;;;;7.13;4.43;;;;;;;15.75;82.28;101454.06;694157;28;5018;-55
2021/07/19 01:22:46;;;;;;;7.05;4.90;;;;;;;15.78;82.28;101449.66;691802;28;3568;-54
2021/07/19 01:23:41;;;;;;;5.88;4.30;;;;;;;16.02;81.19;101446.69;691624;28;4613;-54
2021/07/19 01:24:44;;;;;;;7.28;4.38;;;;;;;15.99;81.14;101443.22;689382;28;4474;-54
2021/07/19 01:25:22;;;;;;;6.72;4.55;;;;;;;15.81;82.50;101443.47;692241;28;1711;-52
2021/07/19 01:26:21;;;;;;;7.72;4.68;;;;;;;15.83;82.27;101444.31;689358;28;4299;-53
2021/07/19 01:26:42;;;;;;;6.55;4.60;;;;;;;15.89;81.59;101446.88;692108;28;5034;-52
2021/07/19 01:27:20;;;;;;;7.25;4.68;;;;;;;16.03;81.08;101445.81;692704;28;4468;-54
2021/07/19 01:28:04;;;;;;;6.32;4.60;;;;;;;16.11;80.61;101447.41;694451;28;1556;-53
2021/07/19 01:28:49;;;;;;;7.10;4.65;;;;;;;16.04;81.15;101439.63;693280;28;3552;-55
2021/07/19 01:29:17;;;;;;;6.45;4.50;;;;;;;16.01;81.63;101445.81;691166;28;1711;-53
2021/07/19 01:29:48;;;;;;;6.75;4.63;;;;;;;15.97;82.56;101445.00;692054;28;4124;-52
2021/07/19 01:30:12;;;;;;;7.22;4.78;;;;;;;15.89;82.79;101441.59;693240;28;4562;-56
2021/07/19 01:30:39;;;;;;;8.95;4.60;;;;;;;15.88;82.59;101445.16;695278;28;1699;-52
2021/07/19 01:31:14;;;;;;;7.25;4.90;;;;;;;15.84;82.30;101443.44;692680;28;1766;-52
2021/07/19 01:31:42;;;;;;;6.72;4.70;;;;;;;15.78;82.97;101447.00;694183;28;4319;-54
2021/07/19 01:32:05;;;;;;;7.93;4.70;;;;;;;15.77;83.20;101439.97;691303;28;4738;-53
2021/07/19 01:32:27;;;;;;;7.57;4.78;;;;;;;15.76;83.56;101445.28;689661;28;1461;-52
2021/07/19 01:32:49;;;;;;;6.47;4.60;;;;;;;15.73;83.22;101446.19;687758;28;4439;-50
2021/07/19 01:33:12;;;;;;;6.10;4.50;;;;;;;15.69;83.32;101444.50;689734;28;4694;-52
2021/07/19 01:33:35;;;;;;;7.00;4.70;;;;;;;15.65;83.64;101448.91;689709;28;1633;-50
2021/07/19 01:34:04;;;;;;;6.80;5.10;;;;;;;15.64;83.80;101441.03;688289;28;1579;-52
2021/07/19 01:34:29;;;;;;;8.80;4.70;;;;;;;15.65;83.31;101448.06;691041;28;1382;-55
2021/07/19 01:34:53;;;;;;;6.68;4.63;;;;;;;15.66;83.51;101455.94;691889;28;4610;-50
2021/07/19 01:35:14;;;;;;;7.88;4.95;;;;;;;15.59;83.68;101443.75;693314;28;4202;-53
2021/07/19 01:35:38;;;;;;;8.70;4.75;;;;;;;15.65;83.20;101448.91;692226;28;1631;-54
2021/07/19 01:36:01;;;;;;;6.95;4.88;;;;;;;15.70;83.35;101447.97;695186;28;4609;-56
2021/07/19 01:36:27;;;;;;;6.30;4.65;;;;;;;15.71;83.07;101444.47;696399;28;4259;-55
2021/07/19 01:37:21;;;;;;;7.82;4.60;;;;;;;15.71;82.50;101449.72;687146;28;1378;-55
2021/07/19 01:37:56;;;;;;;7.25;4.70;;;;;;;15.72;82.77;101448.84;694363;28;4787;-53
2021/07/19 01:38:28;;;;;;;6.90;4.50;;;;;;;15.70;82.74;101445.34;691668;28;4368;-53
2021/07/19 01:38:52;;;;;;;7.68;4.65;;;;;;;15.72;82.60;101448.84;691399;28;4428;-53
2021/07/19 01:39:13;;;;;;;5.95;4.70;;;;;;;15.71;82.86;101447.97;687606;28;4582;-55
2021/07/19 01:39:37;;;;;;;6.50;4.90;;;;;;;15.73;82.25;101446.19;684510;28;4274;-56
2021/07/19 01:40:01;;;;;;;6.63;4.47;;;;;;;15.72;82.64;101451.50;687491;28;1353;-53
2021/07/19 01:40:24;;;;;;;6.50;4.57;;;;;;;15.68;82.90;101447.16;689917;28;1657;-55
2021/07/19 01:40:46;;;;;;;6.35;4.82;;;;;;;15.65;82.90;101448.91;690539;28;1475;-53
2021/07/19 01:41:10;;;;;;;7.10;4.90;;;;;;;15.65;82.85;101442.78;688413;28;4662;-54
2021/07/19 01:41:32;;;;;;;7.53;4.68;;;;;;;15.60;83.14;101444.59;692297;28;1705;-53
2021/07/19 01:41:54;;;;;;;6.60;4.90;;;;;;;15.59;83.50;101446.38;692798;28;4523;-55
2021/07/19 01:42:16;;;;;;;6.25;4.72;;;;;;;15.57;83.58;101442.88;692840;28;3947;-55
2021/07/19 01:42:38;;;;;;;6.47;4.80;;;;;;;15.52;83.73;101442.09;690796;28;1963;-53
2021/07/19 01:43:01;;;;;;;7.60;4.70;;;;;;;15.49;83.66;101440.34;690932;28;1861;-52
2021/07/19 01:43:23;;;;;;;8.13;4.60;;;;;;;15.49;83.28;101442.09;687605;28;3780;-54
2021/07/19 01:43:46;;;;;;;7.63;4.90;;;;;;;15.48;84.07;101441.25;686889;28;1484;-51
2021/07/19 01:44:10;;;;;;;8.38;5.10;;;;;;;15.44;84.13;101442.16;687884;28;4582;-55
2021/07/19 01:44:31;;;;;;;7.22;4.70;;;;;;;15.44;84.05;101443.94;688226;28;3586;-55
2021/07/19 01:44:54;;;;;;;7.55;4.72;;;;;;;15.39;84.21;101443.13;686796;28;4469;-54
2021/07/19 01:45:16;;;;;;;6.72;4.90;;;;;;;15.41;83.81;101446.59;689466;28;1578;-53
2021/07/19 01:45:38;;;;;;;6.20;4.63;;;;;;;15.49;83.18;101440.34;690806;28;4653;-52
2021/07/19 01:46:03;;;;;;;7.32;4.53;;;;;;;15.58;82.81;101444.63;691130;28;5103;-54
2021/07/19 01:46:25;;;;;;;7.03;4.55;;;;;;;15.54;83.38;101440.28;693014;28;1609;-54
2021/07/19 01:46:49;;;;;;;6.13;4.50;;;;;;;15.48;83.59;101441.25;694099;28;1457;-51
2021/07/19 01:47:11;;;;;;;6.72;4.70;;;;;;;15.49;83.47;101439.47;695284;28;4420;-54
2021/07/19 01:47:36;;;;;;;8.65;5.00;;;;;;;15.50;83.50;101438.59;694661;28;4379;-52
2021/07/19 01:47:56;;;;;;;8.25;4.80;;;;;;;15.48;83.54;101433.34;694243;28;4722;-53
2021/07/19 01:48:19;;;;;;;7.15;4.45;;;;;;;15.46;83.77;101440.38;695553;28;2006;-55
2021/07/19 01:48:39;;;;;;;6.30;4.35;;;;;;;15.41;83.82;101441.31;695890;28;3296;-53
2021/07/19 01:49:00;;;;;;;6.23;4.47;;;;;;;15.33;83.97;101437.03;695429;28;1475;-50
2021/07/19 01:49:25;;;;;;;7.55;4.75;;;;;;;15.31;84.25;101443.19;696474;28;4663;-53
2021/07/19 01:49:46;;;;;;;7.70;5.00;;;;;;;15.28;84.15;101432.72;697435;28;1395;-51
2021/07/19 01:50:08;;;;;;;7.10;4.80;;;;;;;15.27;84.25;101437.13;696682;28;4534;-54
2021/07/19 01:50:50;;;;;;;8.55;5.00;;;;;;;15.22;85.00;101430.16;694947;28;1677;-51
2021/07/19 01:51:14;;;;;;;7.50;4.90;;;;;;;15.22;84.18;101433.66;695431;28;5088;-54
2021/07/19 01:51:54;;;;;;;6.88;4.63;;;;;;;15.32;83.79;101437.91;698142;28;3597;-52